createdAt,value
2022-08-28T00:00:30.114Z,101067.91
2022-08-28T00:02:57.890Z,101071.59
2022-08-28T00:05:27.297Z,101076.78
2022-08-28T00:07:54.086Z,101071.16
2022-08-28T00:10:22.691Z,101075.38
2022-08-28T00:12:50.939Z,101071.47
2022-08-28T00:15:23.292Z,101077.53
2022-08-28T00:17:50.766Z,101081.09
2022-08-28T00:20:21.201Z,101077.19
2022-08-28T00:22:48.774Z,101081.94
2022-08-28T00:25:16.096Z,101082.72
2022-08-28T00:27:55.204Z,101087.63
2022-08-28T00:30:24.580Z,101083.94
2022-08-28T00:32:52.642Z,101076.31
2022-08-28T00:35:20.014Z,101077.53
2022-08-28T00:37:48.168Z,101081.88
2022-08-28T00:40:16.697Z,101084.16
2022-08-28T00:42:47.172Z,101081.00
2022-08-28T00:45:18.255Z,101079.28
2022-08-28T00:47:45.862Z,101075.72
2022-08-28T00:50:18.181Z,101074.59
2022-08-28T00:52:46.804Z,101074.38
2022-08-28T00:55:20.217Z,101073.41
2022-08-28T00:57:52.957Z,101074.94
2022-08-28T01:00:23.974Z,101076.13
2022-08-28T01:02:51.529Z,101071.69
2022-08-28T01:05:18.711Z,101070.91
2022-08-28T01:07:46.569Z,101075.06
2022-08-28T01:10:20.589Z,101077.44
2022-08-28T01:12:48.394Z,101074.16
2022-08-28T01:15:17.819Z,101078.84
2022-08-28T01:17:50.187Z,101071.69
2022-08-28T01:20:22.214Z,101068.19
2022-08-28T01:22:54.979Z,101080.69
2022-08-28T01:25:22.574Z,101074.59
2022-08-28T01:27:49.325Z,101078.84
2022-08-28T01:30:19.784Z,101085.56
2022-08-28T01:32:49.593Z,101086.97
2022-08-28T01:35:21.009Z,101083.06
2022-08-28T01:37:47.783Z,101078.63
2022-08-28T01:40:18.487Z,101081.31
2022-08-28T01:42:45.232Z,101077.66
2022-08-28T01:45:15.928Z,101086.97
2022-08-28T01:47:44.718Z,101078.84
2022-08-28T01:50:14.182Z,101079.16
2022-08-28T01:52:41.820Z,101089.56
2022-08-28T01:55:11.296Z,101079.47
2022-08-28T01:57:49.838Z,101078.06
2022-08-28T02:00:17.414Z,101086.41
2022-08-28T02:02:44.406Z,101082.53
2022-08-28T02:05:11.757Z,101083.59
2022-08-28T02:07:39.087Z,101092.19
2022-08-28T02:10:07.970Z,101088.78
2022-08-28T02:12:36.062Z,101085.88
2022-08-28T02:15:02.892Z,101083.19
2022-08-28T02:17:29.666Z,101086.75
2022-08-28T02:19:56.364Z,101095.53
2022-08-28T02:22:23.069Z,101097.34
2022-08-28T02:24:49.854Z,101104.94
2022-08-28T02:27:17.039Z,101092.34
2022-08-28T02:29:44.346Z,101094.31
2022-08-28T02:32:11.130Z,101101.66
2022-08-28T02:34:37.897Z,101091.38
2022-08-28T02:37:04.924Z,101099.19
2022-08-28T02:39:31.782Z,101102.94
2022-08-28T02:41:58.947Z,101103.94
2022-08-28T02:44:25.728Z,101102.50
2022-08-28T02:46:52.853Z,101098.97
2022-08-28T02:49:20.976Z,101099.44
2022-08-28T02:51:47.799Z,101100.53
2022-08-28T02:54:14.798Z,101095.09
2022-08-28T02:56:45.673Z,101097.81
2022-08-28T02:59:13.589Z,101097.03
2022-08-28T03:01:40.514Z,101100.72
2022-08-28T03:04:07.299Z,101093.47
2022-08-28T03:06:33.988Z,101096.38
2022-08-28T03:09:00.754Z,101107.41
2022-08-28T03:11:27.630Z,101100.28
2022-08-28T03:13:55.664Z,101097.84
2022-08-28T03:16:22.616Z,101098.38
2022-08-28T03:18:49.363Z,101098.78
2022-08-28T03:21:16.141Z,101099.53
2022-08-28T03:23:42.865Z,101099.53
2022-08-28T03:26:15.345Z,101101.03
2022-08-28T03:28:45.612Z,101098.16
2022-08-28T03:31:14.655Z,101102.47
2022-08-28T03:33:42.627Z,101100.69
2022-08-28T03:36:15.022Z,101100.28
2022-08-28T03:38:42.151Z,101106.34
2022-08-28T03:41:13.415Z,101107.97
2022-08-28T03:43:40.297Z,101108.84
2022-08-28T03:46:14.163Z,101103.06
2022-08-28T03:48:43.519Z,101109.47
2022-08-28T03:51:18.090Z,101108.91
2022-08-28T03:53:45.480Z,101107.28
2022-08-28T03:56:14.473Z,101114.53
2022-08-28T03:58:41.681Z,101109.31
2022-08-28T04:01:09.146Z,101107.44
2022-08-28T04:03:36.684Z,101112.00
2022-08-28T04:06:03.682Z,101112.78
2022-08-28T04:08:30.585Z,101114.72
2022-08-28T04:10:59.565Z,101122.91
2022-08-28T04:13:26.809Z,101132.19
2022-08-28T04:16:01.806Z,101129.50
2022-08-28T04:18:31.895Z,101132.97
2022-08-28T04:21:04.053Z,101130.34
2022-08-28T04:23:30.800Z,101133.28
2022-08-28T04:25:57.760Z,101135.09
2022-08-28T04:28:26.017Z,101138.69
2022-08-28T04:30:57.224Z,101144.94
2022-08-28T04:33:25.478Z,101154.78
2022-08-28T04:35:52.447Z,101157.50
2022-08-28T04:38:19.214Z,101156.72
2022-08-28T04:40:46.006Z,101161.09
2022-08-28T04:43:12.767Z,101162.81
2022-08-28T04:45:44.047Z,101161.09
2022-08-28T04:48:13.454Z,101166.28
2022-08-28T04:50:45.182Z,101160.50
2022-08-28T04:53:12.423Z,101162.81
2022-08-28T04:55:53.623Z,101160.13
2022-08-28T04:58:22.839Z,101160.31
2022-08-28T05:00:52.091Z,101156.44
2022-08-28T05:03:18.971Z,101162.13
2022-08-28T05:05:48.494Z,101157.56
2022-08-28T05:08:17.382Z,101159.50
2022-08-28T05:10:44.320Z,101163.97
2022-08-28T05:13:12.156Z,101170.81
2022-08-28T05:15:40.335Z,101178.03
2022-08-28T05:18:07.184Z,101168.91
2022-08-28T05:20:43.195Z,101173.53
2022-08-28T05:23:10.564Z,101178.03
2022-08-28T05:25:39.673Z,101178.34
2022-08-28T05:28:10.928Z,101178.03
2022-08-28T05:30:40.104Z,101175.97
2022-08-28T05:33:08.310Z,101177.78
2022-08-28T05:35:40.856Z,101182.25
2022-08-28T05:38:08.141Z,101184.38
2022-08-28T05:40:41.002Z,101177.94
2022-08-28T05:43:07.736Z,101180.81
2022-08-28T05:45:34.466Z,101188.63
2022-08-28T05:48:01.219Z,101189.50
2022-08-28T05:50:27.993Z,101188.06
2022-08-28T05:52:54.754Z,101186.91
2022-08-28T05:55:21.436Z,101198.28
2022-08-28T05:57:48.100Z,101194.78
2022-08-28T06:00:15.129Z,101198.19
2022-08-28T06:02:42.458Z,101199.72
2022-08-28T06:05:09.646Z,101199.47
2022-08-28T06:07:41.146Z,101193.09
2022-08-28T06:10:10.801Z,101191.84
2022-08-28T06:12:38.287Z,101191.91
2022-08-28T06:15:06.116Z,101197.78
2022-08-28T06:17:33.057Z,101195.56
2022-08-28T06:19:59.818Z,101200.81
2022-08-28T06:22:26.489Z,101196.47
2022-08-28T06:24:54.033Z,101198.56
2022-08-28T06:27:20.843Z,101203.31
2022-08-28T06:29:47.527Z,101203.72
2022-08-28T06:32:14.675Z,101201.66
2022-08-28T06:34:41.667Z,101214.69
2022-08-28T06:37:09.968Z,101204.19
2022-08-28T06:39:36.868Z,101200.41
2022-08-28T06:42:03.725Z,101209.88
2022-08-28T06:44:32.372Z,101216.06
2022-08-28T06:47:00.631Z,101216.16
2022-08-28T06:49:27.361Z,101223.00
2022-08-28T06:51:54.347Z,101219.47
2022-08-28T06:54:23.333Z,101230.78
2022-08-28T06:56:51.586Z,101223.66
2022-08-28T06:59:18.583Z,101225.19
2022-08-28T07:01:45.578Z,101237.34
2022-08-28T07:04:16.456Z,101240.63
2022-08-28T07:06:47.074Z,101240.53
2022-08-28T07:09:14.578Z,101251.63
2022-08-28T07:11:44.875Z,101250.66
2022-08-28T07:14:11.915Z,101252.59
2022-08-28T07:16:38.919Z,101256.84
2022-08-28T07:19:11.369Z,101257.72
2022-08-28T07:21:41.931Z,101254.53
2022-08-28T07:24:10.667Z,101252.78
2022-08-28T07:26:38.137Z,101261.56
2022-08-28T07:29:09.991Z,101263.13
2022-08-28T07:31:44.312Z,101257.53
2022-08-28T07:34:12.540Z,101264.66
2022-08-28T07:36:39.812Z,101270.44
2022-08-28T07:39:08.490Z,101272.28
2022-08-28T07:41:39.233Z,101269.38
2022-08-28T07:44:25.947Z,101274.59
2022-08-28T07:46:56.741Z,101282.81
2022-08-28T07:49:24.727Z,101280.31
2022-08-28T07:51:54.171Z,101268.81
2022-08-28T07:54:22.611Z,101277.41
2022-08-28T07:56:49.786Z,101276.63
2022-08-28T07:59:17.553Z,101281.03
2022-08-28T08:01:48.123Z,101284.03
2022-08-28T08:04:19.403Z,101271.69
2022-08-28T08:06:47.018Z,101277.66
2022-08-28T08:09:16.209Z,101280.84
2022-08-28T08:11:43.388Z,101281.00
2022-08-28T08:14:10.694Z,101285.78
2022-08-28T08:16:41.245Z,101288.75
2022-08-28T08:19:14.184Z,101293.44
2022-08-28T08:21:45.503Z,101293.22
2022-08-28T08:24:19.434Z,101290.69
2022-08-28T08:26:58.998Z,101295.53
2022-08-28T08:29:32.642Z,101296.34
2022-08-28T08:32:06.257Z,101294.53
2022-08-28T08:34:38.987Z,101294.00
2022-08-28T08:37:20.494Z,101290.09
2022-08-28T08:39:47.268Z,101288.88
2022-08-28T08:42:26.663Z,101301.59
2022-08-28T08:44:56.128Z,101298.31
2022-08-28T08:47:58.921Z,101310.91
2022-08-28T08:50:29.502Z,101297.16
2022-08-28T08:53:02.804Z,101305.88
2022-08-28T08:55:31.663Z,101312.47
2022-08-28T08:58:07.708Z,101316.22
2022-08-28T09:00:41.826Z,101307.22
2022-08-28T09:03:22.215Z,101312.34
2022-08-28T09:05:49.644Z,101303.72
2022-08-28T09:08:30.687Z,101311.97
2022-08-28T09:11:05.002Z,101315.44
2022-08-28T09:13:41.554Z,101307.97
2022-08-28T09:16:18.148Z,101315.75
2022-08-28T09:18:45.283Z,101316.34
2022-08-28T09:21:12.243Z,101301.72
2022-08-28T09:23:39.065Z,101319.00
2022-08-28T09:26:12.547Z,101319.69
2022-08-28T09:28:41.030Z,101320.09
2022-08-28T09:31:12.843Z,101328.34
2022-08-28T09:33:46.648Z,101318.13
2022-08-28T09:36:34.844Z,101324.09
2022-08-28T09:39:14.724Z,101317.09
2022-08-28T09:42:09.439Z,101322.75
2022-08-28T09:45:02.063Z,101322.09
2022-08-28T09:47:49.703Z,101323.63
2022-08-28T09:50:37.665Z,101323.94
2022-08-28T09:53:10.662Z,101326.78
2022-08-28T09:55:53.839Z,101332.97
2022-08-28T09:58:21.570Z,101332.97
2022-08-28T10:00:57.802Z,101346.13
2022-08-28T10:03:35.506Z,101345.59
2022-08-28T10:06:17.867Z,101354.72
2022-08-28T10:08:50.179Z,101349.72
2022-08-28T10:11:28.708Z,101339.94
2022-08-28T10:14:05.212Z,101346.94
2022-08-28T10:16:41.723Z,101355.94
2022-08-28T10:19:29.275Z,101339.50
2022-08-28T10:22:15.758Z,101349.47
2022-08-28T10:25:02.391Z,101349.91
2022-08-28T10:27:44.373Z,101349.59
2022-08-28T10:30:18.093Z,101361.75
2022-08-28T10:33:06.719Z,101355.63
2022-08-28T10:35:49.021Z,101362.16
2022-08-28T10:38:18.854Z,101358.44
2022-08-28T10:41:03.541Z,101356.69
2022-08-28T10:43:34.499Z,101358.91
2022-08-28T10:46:06.980Z,101371.47
2022-08-28T10:48:40.312Z,101372.56
2022-08-28T10:51:20.776Z,101371.41
2022-08-28T10:54:08.225Z,101370.75
2022-08-28T10:56:52.238Z,101376.78
2022-08-28T10:59:23.819Z,101376.31
2022-08-28T11:01:52.529Z,101387.59
2022-08-28T11:04:25.484Z,101388.88
2022-08-28T11:07:02.246Z,101377.72
2022-08-28T11:09:39.057Z,101378.22
2022-08-28T11:12:36.430Z,101386.38
2022-08-28T11:15:40.117Z,101387.22
2022-08-28T11:18:16.229Z,101386.75
2022-08-28T11:20:56.701Z,101388.50
2022-08-28T11:24:08.721Z,101392.75
2022-08-28T11:26:39.733Z,101385.91
2022-08-28T11:29:06.999Z,101386.28
2022-08-28T11:31:37.537Z,101394.28
2022-08-28T11:34:06.469Z,101391.50
2022-08-28T11:36:33.391Z,101395.06
2022-08-28T11:39:06.744Z,101406.75
2022-08-28T11:41:39.149Z,101401.94
2022-08-28T11:44:14.828Z,101394.59
2022-08-28T11:46:44.102Z,101389.31
2022-08-28T11:49:29.343Z,101402.09
2022-08-28T11:52:25.857Z,101393.28
2022-08-28T11:55:23.042Z,101399.09
2022-08-28T11:58:16.272Z,101391.66
2022-08-28T12:00:51.772Z,101391.13
2022-08-28T12:03:38.409Z,101386.66
2022-08-28T12:06:06.284Z,101388.44
2022-08-28T12:08:45.277Z,101388.13
2022-08-28T12:11:40.902Z,101381.28
2022-08-28T12:14:09.918Z,101387.09
2022-08-28T12:16:58.589Z,101380.38
2022-08-28T12:19:36.640Z,101385.03
2022-08-28T12:22:12.073Z,101392.53
2022-08-28T12:24:55.141Z,101387.22
2022-08-28T12:27:22.135Z,101389.19
2022-08-28T12:29:55.257Z,101382.16
2022-08-28T12:32:36.637Z,101395.84
2022-08-28T12:35:03.494Z,101385.16
2022-08-28T12:37:52.987Z,101380.22
2022-08-28T12:40:47.583Z,101384.50
2022-08-28T12:43:43.263Z,101383.56
2022-08-28T12:46:18.906Z,101379.22
2022-08-28T12:49:01.449Z,101372.81
2022-08-28T12:51:34.693Z,101372.09
2022-08-28T12:54:05.383Z,101369.72
2022-08-28T12:56:34.242Z,101380.22
2022-08-28T12:59:27.335Z,101378.31
2022-08-28T13:01:54.991Z,101366.09
2022-08-28T13:04:30.579Z,101365.75
2022-08-28T13:07:13.516Z,101368.75
2022-08-28T13:09:48.108Z,101361.38
2022-08-28T13:12:34.870Z,101366.69
2022-08-28T13:15:13.100Z,101359.53
2022-08-28T13:17:48.636Z,101359.28
2022-08-28T13:20:31.647Z,101351.81
2022-08-28T13:22:59.159Z,101354.25
2022-08-28T13:25:33.078Z,101355.38
2022-08-28T13:28:03.210Z,101350.25
2022-08-28T13:30:33.854Z,101345.81
2022-08-28T13:33:16.918Z,101342.34
2022-08-28T13:35:44.029Z,101341.75
2022-08-28T13:38:16.711Z,101340.63
2022-08-28T13:40:59.346Z,101339.59
2022-08-28T13:43:29.039Z,101334.38
2022-08-28T13:45:56.002Z,101331.72
2022-08-28T13:48:25.147Z,101332.81
2022-08-28T13:51:10.459Z,101331.72
2022-08-28T13:53:38.679Z,101331.13
2022-08-28T13:56:06.527Z,101335.56
2022-08-28T13:58:33.417Z,101332.94
2022-08-28T14:01:00.381Z,101328.72
2022-08-28T14:03:38.025Z,101336.38
2022-08-28T14:06:11.930Z,101327.22
2022-08-28T14:08:40.282Z,101329.69
2022-08-28T14:11:07.514Z,101323.03
2022-08-28T14:13:34.415Z,101321.31
2022-08-28T14:16:04.804Z,101323.03
2022-08-28T14:18:31.819Z,101322.28
2022-08-28T14:20:58.733Z,101324.69
2022-08-28T14:23:25.525Z,101319.44
2022-08-28T14:25:52.528Z,101315.34
2022-08-28T14:28:19.319Z,101319.16
2022-08-28T14:30:48.122Z,101325.75
2022-08-28T14:33:18.814Z,101322.94
2022-08-28T14:35:48.945Z,101323.03
2022-08-28T14:38:16.323Z,101324.16
2022-08-28T14:40:44.641Z,101318.03
2022-08-28T14:43:12.401Z,101326.41
2022-08-28T14:45:47.083Z,101321.63
2022-08-28T14:48:15.047Z,101320.97
2022-08-28T14:50:43.285Z,101316.31
2022-08-28T14:53:10.438Z,101311.72
2022-08-28T14:55:41.855Z,101315.31
2022-08-28T14:58:08.683Z,101318.44
2022-08-28T15:00:43.502Z,101314.72
2022-08-28T15:03:11.526Z,101318.44
2022-08-28T15:05:38.910Z,101313.47
2022-08-28T15:08:15.494Z,101318.41
2022-08-28T15:10:43.079Z,101307.44
2022-08-28T15:13:10.453Z,101309.59
2022-08-28T15:15:39.714Z,101302.72
2022-08-28T15:18:07.418Z,101302.72
2022-08-28T15:20:42.383Z,101300.44
2022-08-28T15:23:09.658Z,101303.25
2022-08-28T15:25:36.407Z,101302.28
2022-08-28T15:28:03.433Z,101296.97
2022-08-28T15:30:30.170Z,101292.56
2022-08-28T15:32:57.739Z,101296.03
2022-08-28T15:35:24.534Z,101293.69
2022-08-28T15:37:53.644Z,101298.13
2022-08-28T15:40:39.676Z,101299.59
2022-08-28T15:43:06.472Z,101299.34
2022-08-28T15:45:37.471Z,101303.06
2022-08-28T15:48:04.436Z,101307.06
2022-08-28T15:50:31.236Z,101301.09
2022-08-28T15:52:58.892Z,101296.41
2022-08-28T15:55:26.289Z,101299.44
2022-08-28T15:57:53.479Z,101296.13
2022-08-28T16:00:20.427Z,101292.47
2022-08-28T16:02:47.220Z,101288.16
2022-08-28T16:05:14.492Z,101287.13
2022-08-28T16:07:41.244Z,101297.16
2022-08-28T16:10:09.411Z,101292.00
2022-08-28T16:12:40.272Z,101290.94
2022-08-28T16:15:08.428Z,101293.66
2022-08-28T16:17:35.183Z,101295.91
2022-08-28T16:20:03.753Z,101295.34
2022-08-28T16:22:30.569Z,101295.44
2022-08-28T16:24:57.504Z,101294.97
2022-08-28T16:27:24.268Z,101295.25
2022-08-28T16:29:52.951Z,101300.34
2022-08-28T16:32:20.157Z,101303.91
2022-08-28T16:34:47.211Z,101305.41
2022-08-28T16:37:19.471Z,101301.94
2022-08-28T16:39:47.943Z,101297.22
2022-08-28T16:42:15.475Z,101300.38
2022-08-28T16:44:42.333Z,101303.47
2022-08-28T16:47:09.231Z,101310.28
2022-08-28T16:49:36.113Z,101306.38
2022-08-28T16:52:03.535Z,101307.44
2022-08-28T16:54:30.505Z,101310.16
2022-08-28T16:56:58.100Z,101311.34
2022-08-28T16:59:24.972Z,101308.78
2022-08-28T17:01:53.636Z,101309.34
2022-08-28T17:04:22.337Z,101300.53
2022-08-28T17:06:49.563Z,101300.53
2022-08-28T17:09:16.465Z,101308.88
2022-08-28T17:11:43.438Z,101309.88
2022-08-28T17:14:12.147Z,101312.66
2022-08-28T17:16:39.083Z,101308.44
2022-08-28T17:19:06.140Z,101311.41
2022-08-28T17:21:51.501Z,101309.84
2022-08-28T17:24:18.374Z,101317.38
2022-08-28T17:26:45.121Z,101317.03
2022-08-28T17:29:11.906Z,101313.97
2022-08-28T17:31:38.741Z,101322.53
2022-08-28T17:34:07.496Z,101319.31
2022-08-28T17:36:35.976Z,101331.03
2022-08-28T17:39:06.160Z,101320.69
2022-08-28T17:41:34.157Z,101328.19
2022-08-28T17:44:02.372Z,101325.88
2022-08-28T17:46:32.793Z,101337.16
2022-08-28T17:49:02.679Z,101326.53
2022-08-28T17:51:42.702Z,101329.78
2022-08-28T17:54:18.577Z,101333.84
2022-08-28T17:56:46.569Z,101334.34
2022-08-28T17:59:14.625Z,101339.31
2022-08-28T18:01:42.477Z,101336.19
2022-08-28T18:04:09.509Z,101346.53
2022-08-28T18:06:36.750Z,101352.25
2022-08-28T18:09:04.856Z,101352.75
2022-08-28T18:11:31.709Z,101346.00
2022-08-28T18:13:59.877Z,101346.41
2022-08-28T18:16:31.223Z,101353.09
2022-08-28T18:18:59.868Z,101350.13
2022-08-28T18:21:27.665Z,101357.69
2022-08-28T18:23:54.591Z,101360.84
2022-08-28T18:26:21.537Z,101363.06
2022-08-28T18:28:48.534Z,101367.13
2022-08-28T18:31:15.345Z,101369.44
2022-08-28T18:33:42.171Z,101374.28
2022-08-28T18:36:10.431Z,101371.94
2022-08-28T18:38:37.322Z,101377.94
2022-08-28T18:41:05.522Z,101388.09
2022-08-28T18:43:33.736Z,101393.78
2022-08-28T18:46:02.165Z,101386.81
2022-08-28T18:48:29.304Z,101394.34
2022-08-28T18:50:56.075Z,101402.63
2022-08-28T18:53:23.449Z,101397.59
2022-08-28T18:55:52.686Z,101398.75
2022-08-28T18:58:21.269Z,101403.66
2022-08-28T19:00:48.215Z,101399.41
2022-08-28T19:03:15.738Z,101410.63
2022-08-28T19:05:42.581Z,101408.09
2022-08-28T19:08:09.327Z,101414.47
2022-08-28T19:10:37.646Z,101414.63
2022-08-28T19:13:05.338Z,101405.97
2022-08-28T19:15:33.434Z,101415.00
2022-08-28T19:18:01.533Z,101418.84
2022-08-28T19:20:29.932Z,101421.84
2022-08-28T19:22:57.661Z,101424.03
2022-08-28T19:25:28.590Z,101424.19
2022-08-28T19:27:59.000Z,101422.44
2022-08-28T19:30:28.168Z,101426.19
2022-08-28T19:32:55.113Z,101426.47
2022-08-28T19:35:24.332Z,101429.25
2022-08-28T19:37:52.088Z,101439.69
2022-08-28T19:40:19.407Z,101440.69
2022-08-28T19:42:46.347Z,101439.97
2022-08-28T19:45:13.974Z,101448.22
2022-08-28T19:47:41.082Z,101430.53
2022-08-28T19:50:09.744Z,101442.31
2022-08-28T19:52:36.821Z,101440.81
2022-08-28T19:55:05.837Z,101442.75
2022-08-28T19:57:33.212Z,101446.41
2022-08-28T20:00:00.358Z,101442.94
2022-08-28T20:02:28.600Z,101450.41
2022-08-28T20:04:55.598Z,101447.84
2022-08-28T20:07:22.742Z,101448.75
2022-08-28T20:09:49.634Z,101456.91
2022-08-28T20:12:17.074Z,101449.06
2022-08-28T20:14:44.802Z,101458.16
2022-08-28T20:17:11.547Z,101455.56
2022-08-28T20:19:38.746Z,101459.56
2022-08-28T20:22:05.566Z,101466.84
2022-08-28T20:24:32.498Z,101467.19
2022-08-28T20:26:59.427Z,101470.13
2022-08-28T20:29:26.310Z,101463.94
2022-08-28T20:31:53.369Z,101477.66
2022-08-28T20:34:20.646Z,101480.38
2022-08-28T20:36:47.875Z,101476.03
2022-08-28T20:39:15.658Z,101478.97
2022-08-28T20:41:44.457Z,101484.38
2022-08-28T20:44:12.989Z,101489.97
2022-08-28T20:46:42.224Z,101483.00
2022-08-28T20:49:13.456Z,101477.06
2022-08-28T20:51:53.956Z,101479.84
2022-08-28T20:54:21.766Z,101475.69
2022-08-28T20:56:49.211Z,101471.59
2022-08-28T20:59:15.997Z,101476.34
2022-08-28T21:01:42.816Z,101480.06
2022-08-28T21:04:10.082Z,101484.75
2022-08-28T21:06:38.409Z,101487.63
2022-08-28T21:09:05.189Z,101489.59
2022-08-28T21:11:32.006Z,101479.91
2022-08-28T21:13:58.871Z,101487.19
2022-08-28T21:16:25.668Z,101481.06
2022-08-28T21:19:14.849Z,101486.50
2022-08-28T21:21:39.376Z,101492.06
2022-08-28T21:24:08.343Z,101486.97
2022-08-28T21:26:37.418Z,101487.06
2022-08-28T21:29:07.311Z,101493.47
2022-08-28T21:31:34.677Z,101494.41
2022-08-28T21:34:01.788Z,101485.53
2022-08-28T21:36:28.769Z,101488.25
2022-08-28T21:38:57.153Z,101483.94
2022-08-28T21:41:24.163Z,101489.47
2022-08-28T21:43:50.860Z,101491.38
2022-08-28T21:46:17.677Z,101496.81
2022-08-28T21:48:49.648Z,101483.59
2022-08-28T21:51:18.619Z,101486.59
2022-08-28T21:53:45.447Z,101498.97
2022-08-28T21:56:26.559Z,101497.44
2022-08-28T21:58:55.680Z,101501.94
2022-08-28T22:01:24.677Z,101501.88
2022-08-28T22:03:51.708Z,101503.09
2022-08-28T22:06:20.400Z,101506.66
2022-08-28T22:08:47.696Z,101505.97
2022-08-28T22:11:14.867Z,101516.88
2022-08-28T22:13:43.833Z,101507.13
2022-08-28T22:16:11.194Z,101511.72
2022-08-28T22:18:38.311Z,101513.66
2022-08-28T22:21:24.181Z,101515.69
2022-08-28T22:23:51.273Z,101515.69
2022-08-28T22:26:20.186Z,101513.09
2022-08-28T22:28:47.470Z,101513.22
2022-08-28T22:31:14.350Z,101503.63
2022-08-28T22:33:43.074Z,101506.19
2022-08-28T22:36:11.000Z,101509.16
2022-08-28T22:38:39.315Z,101513.66
2022-08-28T22:41:06.944Z,101518.31
2022-08-28T22:43:34.543Z,101505.94
2022-08-28T22:46:01.455Z,101513.81
2022-08-28T22:48:28.220Z,101524.69
2022-08-28T22:51:06.573Z,101516.56
2022-08-28T22:53:33.970Z,101519.13
2022-08-28T22:56:00.879Z,101535.09
2022-08-28T22:58:32.366Z,101526.16
2022-08-28T23:01:01.948Z,101521.72
2022-08-28T23:03:28.784Z,101526.09
2022-08-28T23:05:55.538Z,101531.38
2022-08-28T23:08:22.271Z,101522.75
2022-08-28T23:10:58.992Z,101519.31
2022-08-28T23:13:26.203Z,101517.41
2022-08-28T23:15:52.978Z,101517.28
2022-08-28T23:18:20.839Z,101515.41
2022-08-28T23:20:47.549Z,101519.03
2022-08-28T23:23:17.531Z,101518.09
2022-08-28T23:25:44.297Z,101509.28
2022-08-28T23:28:10.977Z,101511.25
2022-08-28T23:30:39.170Z,101513.81
2022-08-28T23:33:08.566Z,101513.66
2022-08-28T23:35:35.896Z,101510.03
2022-08-28T23:38:03.864Z,101514.53
2022-08-28T23:40:30.783Z,101511.97
2022-08-28T23:42:58.262Z,101509.28
2022-08-28T23:45:26.087Z,101510.88
2022-08-28T23:47:54.196Z,101515.41
2022-08-28T23:50:22.365Z,101512.78
2022-08-28T23:52:49.517Z,101515.53
2022-08-28T23:55:18.814Z,101517.22
2022-08-28T23:57:45.921Z,101509.97
